Bushehr, Bushehr Airport (OIBB)

NameBushehr Airport
CityBushehr
CountryIran (Islamic Republic of)
ICAOOIBB
IATABUZ
Altitude21 m
CoordinatesGoogle Map
Live Air TrafficLiveATC.net
METAROIBB 221100Z 13019KT 9999 FEW030CB BKN040 BKN090 19/08 Q1014 A2995
2020-01-22 11:00:00 Wind: East-Southeast (130°) 9.77 m/s - Visibility: > 10000 m - Temperature: 19 °C - Dew point: 8 °C - Humidity: 49% - Pressure: 1014.22 hPa

Sorry, no flights used the airport in this database.